Latest Coastal Weather Observations for Adelaide Airport

IDS60701

Issued at 6:51 am CDT Monday 5 December 2016 (issued every 10 minutes, with the page automatically refreshed every 10 minutes)

About coastal observations | Map of coastal stations | Coastal observations for SA | Marine services | Other Formats
Station Details ID: 023034 Name: ADELAIDE AIRPORT Lat: -34.95 Lon: 138.52 Height: 2.0 m
Data from the previous 72 hours. | See also: Recent months at Adelaide Airport
Date/Time
CDT
Temp
°C
Wind Pressure Rain since
9am
mm
Weather Cloud Vis
km
Sea
Height
m
Swell
Dir  Spd
kts
Gust
kts
hPa Trend Height
m
Period
s
Dir
05/06:30am 14.8 SSE 7 9 1013.0 - 4.4 - Mostly cloudy 10 - - - -
05/06:00am 14.1 S 6 9 1012.6 R 4.4 Fine Mostly cloudy 30 - - - -
05/05:30am 14.1 S 6 8 1012.2 - 4.4 - Partly cloudy 10 - - - -
05/05:00am 13.7 SSE 8 10 1011.4 - 4.4 - Partly cloudy 10 - - - -
05/04:30am 13.9 SE 7 9 1011.9 - 4.4 - Mostly clear 10 - - - -
05/04:00am 14.8 S 8 10 1011.5 - 4.4 - Mostly clear 10 - - - -
05/03:30am 15.8 S 7 10 1011.2 - 4.4 - Mostly clear 10 - - - -
05/03:00am 15.9 SSW 12 15 1010.9 R 4.4 Fine Mostly clear 30 - - - -
05/02:30am 16.1 SSW 12 16 1010.8 - 4.4 - Mostly clear 10 - - - -
05/02:00am 16.5 SSW 11 15 1010.8 - 4.4 - Partly cloudy 10 - - - -
05/01:30am 17.2 SSW 9 14 1011.0 - 4.4 - Mostly cloudy 10 - - - -
05/01:00am 17.4 S 11 18 1010.7 - 4.4 - Partly cloudy 10 - - - -
05/12:30am 17.5 SSW 15 22 1010.3 - 4.4 - Partly cloudy 10 - - - -
05/12:00am 17.8 SSW 14 20 1009.7 R 4.4 Fine Mostly cloudy 20 - - - -
 
Date/Time
CDT
Temp
°C
Wind Pressure Rain since
9am
mm
Weather Cloud Vis
km
Sea
Height
m
Swell
Dir  Spd
kts
Gust
kts
hPa Trend Height
m
Period
s
Dir
04/11:42pm 17.7 SSW 14 21 1009.5 - 4.4 - Partly cloudy 10 - - - -
04/11:30pm 17.8 SSW 13 17 1009.3 - 4.4 - Partly cloudy 10 - - - -
04/11:00pm 18.3 SW 16 20 1009.1 - 4.4 - Mostly clear 10 - - - -
04/10:30pm 18.6 SW 13 20 1008.8 - 4.4 - Partly cloudy 10 - - - -
04/10:00pm 19.5 SW 12 17 1008.0 - 4.4 - - 10 - - - -
04/09:30pm 19.8 SW 8 11 1007.4 - 4.4 - - 10 - - - -
04/09:00pm 20.4 SW 11 14 1006.9 R 4.4 Fine Mostly cloudy 35 - - - -
04/08:30pm 21.2 SSW 13 18 1006.5 - 4.4 - Partly cloudy 10 - - - -
04/08:00pm 24.3 NW 13 16 1004.7 - 4.4 - Partly cloudy 10 - - - -
04/07:30pm 26.5 NW 12 16 1003.8 - 4.4 - Partly cloudy 10 - - - -
04/07:00pm 27.4 NW 13 16 1003.2 - 4.4 - Partly cloudy 10 - - - -
04/06:30pm 29.5 NNW 8 10 1003.0 - 4.4 - Partly cloudy 10 - - - -
04/06:00pm 29.5 N 11 14 1002.6 F 4.4 Fine Mostly cloudy 35 - - - -
04/05:30pm 28.9 N 12 15 1002.4 - 4.4 - Partly cloudy 10 - - - -
04/05:00pm 28.5 NNE 13 17 1002.7 - 4.4 - - 10 - - - -
04/04:30pm 27.5 NNE 12 16 1003.0 - 4.4 - - 10 - - - -
04/04:00pm 27.1 NNE 15 19 1003.5 - 4.4 - - 10 - - - -
04/03:30pm 27.0 NNE 16 21 1003.6 - 4.4 - Partly cloudy 10 - - - -
04/03:00pm 26.2 NNE 14 18 1004.1 F 4.4 Distant precip. Mostly cloudy 35 - - - -
04/02:30pm 24.7 NNE 15 20 1004.8 - 4.4 - Mostly clear 10 - - - -
04/02:00pm 24.6 N 15 20 1005.8 - 4.4 - Mostly clear 10 - - - -
04/01:30pm 24.7 NE 11 15 1006.3 - 4.4 - Mostly clear 10 - - - -
04/01:00pm 23.1 NNE 10 15 1007.6 - 4.4 - Mostly clear 10 - - - -
04/12:30pm 22.4 N 11 16 1008.1 - 4.2 - Partly cloudy 10 - - - -
04/12:00pm 22.3 NNE 9 13 1008.4 F 3.6 Rain Cloudy 15 - - - -
04/11:30am 21.9 NNE 9 18 1008.9 - 2.8 - Partly cloudy 9 - - - -
04/11:00am 21.9 NE 9 12 1009.1 - 2.0 Rain Partly cloudy 9 - - - -
04/10:30am 22.2 NNE 10 15 1009.2 - 0.8 - Partly cloudy 8 - - - -
04/10:00am 22.8 N 10 14 1009.1 - 0.2 Showers Partly cloudy 10 - - - -
04/09:30am 23.2 NNW 17 22 1009.5 - 0.0 - Partly cloudy 10 - - - -
04/09:00am 23.6 NNW 25 35 1008.9 R 0.0 Rain Mostly cloudy 15 - - - -
04/08:49am 25.4 N 16 32 1009.0 - 0.0 Rain Partly cloudy 10 - - - -
04/08:30am 25.2 NNE 14 16 1008.4 - 0.0 - Partly cloudy 10 - - - -
04/08:00am 24.1 NE 11 15 1007.8 - 0.0 - - 10 - - - -
04/07:30am 23.6 NNE 15 23 1007.4 - 0.0 - - 10 - - - -
04/07:00am 20.5 N 11 14 1006.8 - 0.0 - - 10 - - - -
04/06:30am 19.7 CALM 0 2 1006.2 - 0.0 - - 10 - - - -
04/06:00am 20.3 NNE 4 5 1006.1 F 0.0 Fine Mostly cloudy 30 - - - -
04/05:30am 19.5 NNE 6 6 1006.3 - 0.0 - - 10 - - - -
04/05:00am 18.5 NE 5 6 1006.2 - 0.0 - - 10 - - - -
04/04:30am 18.5 NNE 5 6 1006.3 - 0.0 - - 10 - - - -
04/04:00am 17.9 ENE 4 5 1006.6 - 0.0 - - 10 - - - -
04/03:30am 18.7 ENE 5 7 1006.9 - 0.0 - - 10 - - - -
04/03:00am 18.0 SSE 4 5 1007.5 F 0.0 Fine Clear 30 - - - -
04/02:30am 20.1 NE 7 7 1007.8 - 0.0 - - 10 - - - -
04/02:00am 19.7 NE 7 9 1008.4 - 0.0 - - 10 - - - -
04/01:30am 19.6 NNE 3 4 1008.7 - 0.0 - - 10 - - - -
04/01:00am 18.2 SE 3 4 1008.6 - 0.0 - - 10 - - - -
04/12:30am 18.1 E 3 4 1009.1 - 0.0 - - 10 - - - -
04/12:00am 19.9 NNE 5 5 1009.3 F 0.0 Fine Mostly clear 30 - - - -
 
Date/Time
CDT
Temp
°C
Wind Pressure Rain since
9am
mm
Weather Cloud Vis
km
Sea
Height
m
Swell
Dir  Spd
kts
Gust
kts
hPa Trend Height
m
Period
s
Dir
03/11:30pm 20.1 CALM 0 0 1009.5 - 0.0 - - 10 - - - -
03/11:00pm 19.9 SSW 4 5 1009.5 - 0.0 - - 10 - - - -
03/10:30pm 19.8 SSW 4 4 1009.9 - 0.0 - Partly cloudy 10 - - - -
03/10:00pm 19.6 SW 4 5 1010.3 - 0.0 - Partly cloudy 10 - - - -
03/09:30pm 20.3 SW 4 4 1010.6 - 0.0 - Partly cloudy 10 - - - -
03/09:00pm 20.3 W 3 5 1010.7 F 0.0 Fine Mostly cloudy 30 - - - -
03/08:30pm 20.6 SW 5 7 1010.6 - 0.0 - Partly cloudy 10 - - - -
03/08:00pm 21.3 SW 6 9 1010.9 - 0.0 - Cloudy 10 - - - -
03/07:30pm 21.9 SW 9 11 1010.7 - 0.0 - Partly cloudy 10 - - - -
03/07:00pm 22.5 SSW 9 13 1010.5 - 0.0 - Cloudy 10 - - - -
03/06:30pm 23.1 SW 9 12 1010.2 - 0.0 - - 10 - - - -
03/06:00pm 25.3 WSW 7 9 1009.9 F 0.0 Fine Mostly cloudy 35 - - - -
03/05:30pm 25.1 SW 6 7 1010.0 - 0.0 - - 10 - - - -
03/05:00pm 23.5 SSW 10 14 1010.5 - 0.0 - - 10 - - - -
03/04:30pm 22.1 SW 13 16 1011.0 - 0.0 - - 10 - - - -
03/04:00pm 22.3 SSW 13 16 1011.1 - 0.0 - - 10 - - - -
03/03:30pm 22.6 SW 15 19 1011.1 - 0.0 - - 10 - - - -
03/03:00pm 23.3 SW 14 17 1011.2 S 0.0 Fine Mostly cloudy 35 - - - -
03/02:30pm 24.2 SW 10 13 1011.1 - 0.0 - - 10 - - - -
03/02:00pm 23.4 SW 11 14 1011.4 - 0.0 - - 10 - - - -
03/01:30pm 23.5 SW 13 15 1011.7 - 0.0 - - 10 - - - -
03/01:00pm 22.7 SSW 12 15 1012.1 - 0.0 - - 10 - - - -
03/12:30pm 22.7 SW 11 14 1012.2 - 0.0 - - 10 - - - -
03/12:00pm 22.0 SW 10 14 1012.5 F 0.0 Fine Partly cloudy 35 - - - -
03/11:30am 21.4 WSW 9 12 1012.8 - 0.0 - - 10 - - - -
03/11:00am 20.8 WSW 8 12 1013.0 - 0.0 - - 10 - - - -
03/10:30am 20.0 WSW 8 10 1013.3 - 0.0 - - 10 - - - -
03/10:00am 20.2 ESE 4 6 1013.4 - 0.0 - - 10 - - - -
03/09:30am 20.0 NE 4 6 1013.5 - 0.0 - - 10 - - - -
03/09:00am 18.3 WNW 2 5 1014.2 F 0.0 Fine Partly cloudy 35 - - - -
03/08:30am 17.4 WNW 1 4 1014.0 - 0.0 - - 10 - - - -
03/08:00am 16.4 CALM 0 3 1014.1 - 0.0 - - 10 - - - -
03/07:30am 15.6 CALM 0 0 1014.2 - 0.0 - - 10 - - - -
03/07:00am 13.6 S 3 4 1014.2 - 0.0 - - 10 - - - -
03/06:30am 11.0 CALM 0 0 1013.9 - 0.0 - - 10 - - - -
03/06:00am 9.9 CALM 0 0 1013.7 S 0.0 Fine Mostly clear 35 - - - -
03/05:30am 9.9 W 1 4 1013.7 - 0.0 - - 10 - - - -
03/05:00am 10.4 CALM 0 0 1013.4 - 0.0 - - 10 - - - -
03/04:30am 10.7 CALM 0 0 1013.1 - 0.0 - - 10 - - - -
03/04:00am 10.9 CALM 0 0 1013.0 - 0.0 - - 10 - - - -
03/03:30am 11.4 ENE 1 3 1013.0 - 0.0 - - 10 - - - -
03/03:00am 11.5 ESE 6 7 1013.0 F 0.0 Fine Clear 35 - - - -
03/02:30am 12.1 ESE 6 7 1013.2 - 0.0 - - 10 - - - -
03/02:00am 12.8 SE 6 8 1013.4 - 0.0 - - 10 - - - -
03/01:30am 13.1 ESE 7 9 1013.6 - 0.0 - - 10 - - - -
03/01:00am 13.0 ESE 7 9 1014.0 - 0.0 - - 10 - - - -
03/12:30am 13.0 SE 7 8 1014.2 - 0.0 - - 10 - - - -
03/12:00am 13.3 SE 7 8 1014.4 F 0.0 Fine Partly cloudy 30 - - - -
 
Date/Time
CDT
Temp
°C
Wind Pressure Rain since
9am
mm
Weather Cloud Vis
km
Sea
Height
m
Swell
Dir  Spd
kts
Gust
kts
hPa Trend Height
m
Period
s
Dir
02/11:30pm 13.8 SE 10 13 1014.7 - 0.0 - - 10 - - - -
02/11:00pm 14.0 SE 8 10 1014.9 - 0.0 - - 10 - - - -
02/10:30pm 14.4 SE 9 12 1014.9 - 0.0 - - 10 - - - -
02/10:00pm 14.8 SE 10 15 1014.9 - 0.0 - - 10 - - - -
02/09:30pm 15.1 SE 11 16 1014.6 - 0.0 - - 10 - - - -
02/09:00pm 15.6 SE 11 16 1014.7 R 0.0 Fine Partly cloudy 30 - - - -
02/08:30pm 16.2 SE 13 17 1014.6 - 0.0 - - 10 - - - -
02/08:00pm 17.3 SE 12 16 1014.1 - 0.0 - - 10 - - - -
02/07:30pm 18.4 SSE 13 18 1013.9 - 0.0 - - 10 - - - -
02/07:00pm 20.1 SE 15 19 1013.5 - 0.0 - - 10 - - - -
02/06:30pm 20.8 SSE 14 19 1013.1 - 0.0 - - 10 - - - -
02/06:00pm 21.7 SSE 14 17 1012.8 S 0.0 Fine Mostly cloudy 30 - - - -
02/05:30pm 22.4 SSE 15 19 1012.7 - 0.0 - - 10 - - - -
02/05:00pm 20.8 SW 14 20 1012.7 - 0.0 - Mostly clear 10 - - - -
02/04:30pm 20.5 SW 18 24 1012.9 - 0.0 - Mostly clear 10 - - - -
02/04:00pm 20.8 SW 18 22 1012.8 - 0.0 - Mostly clear 10 - - - -
02/03:30pm 19.3 SW 18 23 1013.2 - 0.0 - Mostly clear 10 - - - -
02/03:00pm 20.4 SW 17 21 1013.4 R 0.0 Fine Mostly cloudy 35 - - - -
02/02:30pm 20.1 SW 17 20 1013.7 - 0.0 - Mostly clear 10 - - - -
02/02:00pm 19.2 SW 17 21 1014.0 - 0.0 - Mostly clear 10 - - - -
02/01:30pm 19.6 SW 16 19 1014.1 - 0.0 - Mostly clear 10 - - - -
02/01:00pm 20.2 SW 16 19 1014.3 - 0.0 - Mostly clear 10 - - - -
02/12:30pm 19.4 WSW 16 19 1014.3 - 0.0 - Mostly clear 10 - - - -
02/12:00pm 18.9 SW 14 18 1014.3 R 0.0 Fine Partly cloudy 35 - - - -
02/11:30am 19.3 SW 15 18 1014.3 - 0.0 - Mostly clear 10 - - - -
02/11:00am 18.7 SW 13 16 1014.4 - 0.0 - Mostly clear 10 - - - -
02/10:30am 18.6 SW 11 14 1014.5 - 0.0 - Mostly clear 10 - - - -
02/10:00am 17.5 SW 9 11 1014.5 - 0.0 - Mostly clear 10 - - - -
02/09:30am 17.3 SW 9 13 1014.4 - 0.0 - Mostly clear 10 - - - -
02/09:00am 17.9 SSE 6 10 1014.2 R 0.0 Fine Partly cloudy 35 - - - -
02/08:30am 17.4 S 8 11 1013.8 - 0.0 - Mostly clear 10 - - - -
02/08:00am 17.0 S 6 8 1013.5 - 0.0 - Mostly clear 10 - - - -
02/07:30am 16.0 SSE 5 6 1013.3 - 0.0 - Mostly clear 10 - - - -
02/07:00am 14.4 SE 5 5 1013.0 - 0.0 - Mostly clear 10 - - - -

Other Formats:

Comma delimited format used in spreadsheet applications
http://www.bom.gov.au/fwo/IDS60701/IDS60701.94672.axf

JavaScript Object Notation format (JSON) in row-major order
http://www.bom.gov.au/fwo/IDS60701/IDS60701.94672.json